Time;durP1;ratioP1;P1;durP2;ratioP2;P2;SDS_P1;SDS_P2;PMS_P1;PMS_P2;Temp;Humidity;BMP_temperature;BMP_pressure;BME280_temperature;BME280_humidity;BME280_pressure;Samples;Min_cycle;Max_cycle;Signal;HPM_P1;HPM_P2
2022/10/07 00:03:00;;;;;;;11.18;4.63;;;;;;;;;;10562835;28;20051;-75
2022/10/07 00:08:05;;;;;;;8.50;4.20;;;;;;;;;;10563970;28;20059;-77
2022/10/07 00:13:10;;;;;;;9.20;4.28;;;;;;;;;;10559975;28;20266;-74
2022/10/07 00:18:13;;;;;;;7.28;3.75;;;;;;;;;;10560977;28;20118;-74
2022/10/07 00:23:16;;;;;;;9.18;3.65;;;;;;;;;;10563145;28;20048;-74
2022/10/07 00:28:20;;;;;;;10.80;4.05;;;;;;;;;;10561293;28;20488;-74
2022/10/07 00:33:23;;;;;;;7.13;4.22;;;;;;;;;;10552445;28;20035;-74
2022/10/07 00:38:26;;;;;;;6.40;3.87;;;;;;;;;;10551238;28;20395;-76
2022/10/07 00:43:31;;;;;;;8.38;4.15;;;;;;;;;;10559535;28;20043;-75
2022/10/07 00:48:36;;;;;;;6.07;3.45;;;;;;;;;;10559548;28;20465;-74
2022/10/07 00:53:39;;;;;;;8.02;3.92;;;;;;;;;;10562873;28;20039;-75
2022/10/07 00:58:47;;;;;;;11.48;5.35;;;;;;;;;;10572649;28;20032;-78
2022/10/07 01:03:51;;;;;;;14.05;5.22;;;;;;;;;;10562365;28;20040;-75
2022/10/07 01:08:54;;;;;;;9.43;4.10;;;;;;;;;;10569066;28;20036;-74
2022/10/07 01:14:04;;;;;;;10.30;4.82;;;;;;;;;;10566209;28;20051;-75
2022/10/07 01:19:13;;;;;;;8.20;3.30;;;;;;;;;;10565798;28;20294;-75
2022/10/07 01:24:22;;;;;;;7.55;3.70;;;;;;;;;;10562701;28;20048;-75
2022/10/07 01:29:28;;;;;;;6.55;3.55;;;;;;;;;;10581016;27;20028;-75
2022/10/07 01:34:33;;;;;;;9.35;3.80;;;;;;;;;;10563056;28;20417;-76
2022/10/07 01:39:38;;;;;;;8.88;3.85;;;;;;;;;;10565434;28;20440;-77
2022/10/07 01:44:44;;;;;;;7.20;3.13;;;;;;;;;;10554030;28;20544;-76
2022/10/07 01:49:47;;;;;;;8.35;4.13;;;;;;;;;;10548422;28;20729;-75
2022/10/07 01:55:00;;;;;;;6.47;3.22;;;;;;;;;;10565314;28;20547;-75
2022/10/07 02:00:07;;;;;;;6.55;3.20;;;;;;;;;;10561029;28;20449;-74
2022/10/07 02:05:12;;;;;;;7.18;3.85;;;;;;;;;;10560551;28;20482;-74
2022/10/07 02:10:20;;;;;;;8.13;4.10;;;;;;;;;;10553023;28;20036;-75
2022/10/07 02:15:27;;;;;;;7.75;4.03;;;;;;;;;;10561097;28;20416;-74
2022/10/07 02:20:36;;;;;;;8.88;4.15;;;;;;;;;;10567074;27;20143;-74
2022/10/07 02:25:45;;;;;;;8.65;3.65;;;;;;;;;;10567550;28;20455;-75
2022/10/07 02:30:52;;;;;;;10.30;4.40;;;;;;;;;;10563727;28;20051;-75
2022/10/07 02:35:56;;;;;;;9.48;4.28;;;;;;;;;;10566843;28;20533;-76
2022/10/07 02:41:05;;;;;;;8.63;4.05;;;;;;;;;;10567363;28;20124;-75
2022/10/07 02:46:12;;;;;;;6.47;3.75;;;;;;;;;;10567715;28;20400;-75
2022/10/07 02:51:18;;;;;;;10.18;4.40;;;;;;;;;;10559171;28;20032;-74
2022/10/07 02:56:24;;;;;;;11.00;4.75;;;;;;;;;;10559090;28;20036;-76
2022/10/07 03:01:30;;;;;;;9.75;4.35;;;;;;;;;;10569117;28;20066;-74
2022/10/07 03:06:35;;;;;;;9.85;4.78;;;;;;;;;;10568790;28;20046;-74
2022/10/07 03:11:38;;;;;;;10.65;4.32;;;;;;;;;;10560881;28;20036;-75
2022/10/07 03:16:43;;;;;;;11.63;5.88;;;;;;;;;;10558991;28;20044;-74
2022/10/07 03:21:46;;;;;;;;;;;;;;;;;;10561815;28;20036;-76
2022/10/07 03:26:48;;;;;;;12.10;5.35;;;;;;;;;;10564522;28;19923;-75
2022/10/07 03:31:53;;;;;;;10.07;5.03;;;;;;;;;;10556234;28;20042;-75
2022/10/07 03:36:59;;;;;;;14.63;5.53;;;;;;;;;;10559381;28;20039;-75
2022/10/07 03:42:02;;;;;;;12.73;5.75;;;;;;;;;;10564615;28;20069;-75
2022/10/07 03:47:07;;;;;;;14.60;6.37;;;;;;;;;;10561359;28;20279;-75
2022/10/07 03:52:13;;;;;;;12.60;5.95;;;;;;;;;;10562797;28;20172;-74
2022/10/07 04:02:37;;;;;;;15.00;5.90;;;;;;;;;;10558409;28;20039;-75
2022/10/07 04:07:43;;;;;;;12.20;5.72;;;;;;;;;;10554726;28;20541;-76
2022/10/07 04:12:48;;;;;;;13.80;5.25;;;;;;;;;;10540285;27;20120;-76
2022/10/07 04:17:50;;;;;;;;;;;;;;;;;;10565987;27;20035;-75
2022/10/07 04:22:55;;;;;;;13.57;5.90;;;;;;;;;;10554517;28;20090;-75
2022/10/07 04:27:58;;;;;;;12.57;5.85;;;;;;;;;;10556919;28;20061;-74
2022/10/07 04:33:03;;;;;;;12.05;5.65;;;;;;;;;;10556636;28;20040;-75
2022/10/07 04:38:09;;;;;;;12.20;5.70;;;;;;;;;;10556211;28;20119;-75
2022/10/07 04:43:26;;;;;;;14.35;5.68;;;;;;;;;;10558767;28;20036;-75
2022/10/07 04:48:29;;;;;;;13.68;5.60;;;;;;;;;;10560208;28;20472;-73
2022/10/07 04:53:34;;;;;;;15.37;7.10;;;;;;;;;;10554196;28;20425;-76
2022/10/07 04:58:36;;;;;;;18.13;6.95;;;;;;;;;;10564349;28;20040;-76
2022/10/07 05:03:40;;;;;;;17.63;7.32;;;;;;;;;;10545242;28;20283;-77
2022/10/07 05:08:44;;;;;;;19.93;7.77;;;;;;;;;;10560932;28;20044;-75
2022/10/07 05:13:47;;;;;;;18.52;7.70;;;;;;;;;;10564813;28;20032;-75
2022/10/07 05:18:50;;;;;;;18.52;7.88;;;;;;;;;;10558372;28;20409;-75
2022/10/07 05:23:54;;;;;;;13.07;6.00;;;;;;;;;;10555301;28;20115;-78
2022/10/07 05:28:57;;;;;;;12.00;5.25;;;;;;;;;;10560036;28;20136;-76
2022/10/07 05:34:01;;;;;;;12.82;6.20;;;;;;;;;;10559620;28;20044;-74
2022/10/07 05:39:04;;;;;;;;;;;;;;;;;;10560401;28;20067;-75
2022/10/07 05:44:08;;;;;;;10.27;4.55;;;;;;;;;;10546551;28;19926;-75
2022/10/07 05:49:11;;;;;;;15.85;6.25;;;;;;;;;;10543840;28;20032;-75
2022/10/07 05:54:14;;;;;;;19.07;7.30;;;;;;;;;;10558361;28;20036;-75
2022/10/07 05:59:19;;;;;;;11.65;4.82;;;;;;;;;;10569824;28;20035;-75
2022/10/07 06:04:24;;;;;;;20.75;8.23;;;;;;;;;;10555122;28;20040;-75
2022/10/07 06:14:52;;;;;;;22.35;7.95;;;;;;;;;;10562648;28;20067;-74
2022/10/07 06:19:57;;;;;;;22.30;8.70;;;;;;;;;;10564172;27;20468;-75
2022/10/07 06:25:01;;;;;;;15.02;5.57;;;;;;;;;;10564216;28;20039;-75
2022/10/07 06:30:07;;;;;;;31.10;9.38;;;;;;;;;;10560893;27;20155;-75
2022/10/07 06:35:10;;;;;;;24.67;9.80;;;;;;;;;;10543689;28;20043;-73
2022/10/07 06:40:19;;;;;;;22.20;8.48;;;;;;;;;;10561695;28;20040;-74
2022/10/07 06:45:23;;;;;;;25.92;9.40;;;;;;;;;;10554319;28;20036;-75
2022/10/07 06:50:26;;;;;;;22.52;8.75;;;;;;;;;;10569487;27;20028;-74
2022/10/07 06:55:36;;;;;;;23.30;8.23;;;;;;;;;;10563262;28;20701;-75
2022/10/07 07:00:41;;;;;;;19.77;6.82;;;;;;;;;;10563819;28;20040;-75
2022/10/07 07:05:44;;;;;;;24.92;8.07;;;;;;;;;;10559305;28;20057;-75
2022/10/07 07:10:49;;;;;;;19.08;7.82;;;;;;;;;;10560384;28;20104;-75
2022/10/07 07:15:57;;;;;;;19.33;7.73;;;;;;;;;;10563076;28;20075;-77
2022/10/07 07:21:02;;;;;;;22.25;8.38;;;;;;;;;;10557581;28;20032;-76
2022/10/07 07:26:05;;;;;;;20.98;8.20;;;;;;;;;;10556723;28;20046;-76
2022/10/07 07:31:11;;;;;;;21.48;8.63;;;;;;;;;;10567527;28;20051;-76
2022/10/07 07:36:15;;;;;;;22.73;8.98;;;;;;;;;;10561824;28;20661;-77
2022/10/07 07:41:19;;;;;;;19.77;8.07;;;;;;;;;;10561315;28;20086;-76
2022/10/07 07:46:25;;;;;;;20.05;8.65;;;;;;;;;;10561513;28;20055;-76
2022/10/07 07:51:28;;;;;;;22.13;8.88;;;;;;;;;;10558968;27;20195;-76
2022/10/07 07:56:31;;;;;;;18.83;8.45;;;;;;;;;;10565189;28;20047;-76
2022/10/07 08:01:35;;;;;;;17.77;8.23;;;;;;;;;;10557567;28;20038;-75
2022/10/07 08:06:39;;;;;;;19.38;8.57;;;;;;;;;;10560629;28;20133;-75
2022/10/07 08:11:44;;;;;;;21.42;9.65;;;;;;;;;;10557416;28;20051;-75
2022/10/07 08:16:49;;;;;;;20.58;9.10;;;;;;;;;;10555146;28;20043;-75
2022/10/07 08:21:52;;;;;;;20.45;9.43;;;;;;;;;;10555324;28;20093;-75
2022/10/07 08:26:55;;;;;;;19.23;9.55;;;;;;;;;;10553010;28;20046;-74
2022/10/07 08:31:59;;;;;;;25.45;10.77;;;;;;;;;;10567294;28;20063;-76
2022/10/07 08:37:02;;;;;;;20.42;9.30;;;;;;;;;;10558878;28;20493;-73
2022/10/07 08:42:12;;;;;;;23.93;10.70;;;;;;;;;;10554664;28;20111;-75
2022/10/07 08:47:23;;;;;;;22.67;10.43;;;;;;;;;;10565748;28;20789;-74
2022/10/07 08:52:29;;;;;;;18.38;9.70;;;;;;;;;;10558590;28;20111;-72
2022/10/07 08:57:45;;;;;;;23.42;10.50;;;;;;;;;;10558002;28;20070;-74
2022/10/07 09:02:58;;;;;;;17.20;9.15;;;;;;;;;;10560700;28;20394;-74
2022/10/07 09:08:04;;;;;;;25.90;11.68;;;;;;;;;;10560323;28;20043;-75
2022/10/07 09:13:11;;;;;;;20.23;10.30;;;;;;;;;;10560461;28;20036;-75
2022/10/07 09:18:19;;;;;;;20.63;9.73;;;;;;;;;;10572829;28;20048;-74
2022/10/07 09:23:23;;;;;;;20.77;9.98;;;;;;;;;;10566531;27;20044;-75
2022/10/07 09:28:29;;;;;;;21.63;10.40;;;;;;;;;;10554140;27;20047;-75
2022/10/07 09:33:35;;;;;;;15.43;9.10;;;;;;;;;;10568390;28;20044;-75
2022/10/07 09:38:39;;;;;;;17.92;8.30;;;;;;;;;;10567716;27;20060;-75
2022/10/07 09:43:52;;;;;;;17.52;10.30;;;;;;;;;;10560039;28;20340;-74
2022/10/07 09:48:58;;;;;;;21.23;11.18;;;;;;;;;;10567837;28;20050;-74
2022/10/07 09:54:02;;;;;;;18.27;9.90;;;;;;;;;;10570785;28;20110;-75
2022/10/07 09:59:29;;;;;;;18.90;8.63;;;;;;;;;;10570561;27;20645;-75
2022/10/07 10:04:35;;;;;;;18.73;10.32;;;;;;;;;;10555871;28;20067;-76
2022/10/07 10:09:37;;;;;;;17.33;10.38;;;;;;;;;;10567982;27;20044;-76
2022/10/07 10:14:45;;;;;;;17.58;11.48;;;;;;;;;;10566960;28;20035;-76
2022/10/07 10:19:51;;;;;;;15.35;8.65;;;;;;;;;;10566471;28;20336;-76
2022/10/07 10:30:18;;;;;;;16.65;10.75;;;;;;;;;;10566845;28;20501;-76
2022/10/07 10:35:25;;;;;;;15.10;8.68;;;;;;;;;;10557269;28;20090;-76
2022/10/07 10:40:32;;;;;;;17.92;9.77;;;;;;;;;;10568130;27;20539;-75
2022/10/07 10:45:37;;;;;;;17.90;10.70;;;;;;;;;;10537041;28;20145;-74
2022/10/07 10:50:51;;;;;;;21.42;11.80;;;;;;;;;;10560107;28;20054;-75
2022/10/07 10:56:05;;;;;;;17.23;11.23;;;;;;;;;;10557420;28;20043;-76
2022/10/07 11:01:13;;;;;;;17.52;12.10;;;;;;;;;;10548706;28;20036;-76
2022/10/07 11:06:18;;;;;;;15.52;11.32;;;;;;;;;;10553552;28;20119;-76
2022/10/07 11:11:22;;;;;;;18.67;12.43;;;;;;;;;;10561593;28;20047;-76
2022/10/07 11:16:27;;;;;;;19.08;13.50;;;;;;;;;;10549723;28;20059;-76
2022/10/07 11:21:34;;;;;;;13.88;10.38;;;;;;;;;;10572032;27;20039;-78
2022/10/07 11:26:39;;;;;;;16.15;10.85;;;;;;;;;;10561710;28;20559;-77
2022/10/07 11:31:45;;;;;;;16.27;11.68;;;;;;;;;;10566035;27;20039;-76
2022/10/07 11:36:53;;;;;;;14.98;10.57;;;;;;;;;;10562150;28;20101;-77
2022/10/07 11:41:58;;;;;;;15.43;10.60;;;;;;;;;;10563738;28;20043;-77
2022/10/07 11:47:07;;;;;;;13.63;11.05;;;;;;;;;;10554295;27;20122;-75
2022/10/07 11:52:19;;;;;;;15.57;10.93;;;;;;;;;;10568704;27;20631;-77
2022/10/07 11:57:25;;;;;;;15.13;11.50;;;;;;;;;;10571622;28;20036;-76
2022/10/07 12:02:42;;;;;;;13.93;10.43;;;;;;;;;;10565666;28;20056;-77
2022/10/07 12:08:01;;;;;;;17.10;10.48;;;;;;;;;;10565474;28;20039;-77
2022/10/07 12:13:22;;;;;;;17.90;9.75;;;;;;;;;;10561351;28;20043;-76
2022/10/07 12:18:28;;;;;;;13.43;8.93;;;;;;;;;;10564579;28;20036;-76
2022/10/07 12:23:40;;;;;;;15.00;10.10;;;;;;;;;;10542615;28;20488;-77
2022/10/07 12:28:46;;;;;;;20.13;10.52;;;;;;;;;;10570965;27;20040;-77
2022/10/07 12:33:54;;;;;;;17.20;9.30;;;;;;;;;;10565762;28;20031;-78
2022/10/07 12:39:17;;;;;;;14.75;9.07;;;;;;;;;;10568420;27;20085;-77
2022/10/07 12:44:23;;;;;;;16.25;8.63;;;;;;;;;;10560114;28;20040;-76
2022/10/07 12:49:29;;;;;;;14.63;8.48;;;;;;;;;;10557676;28;20496;-77
2022/10/07 12:54:33;;;;;;;12.98;8.07;;;;;;;;;;10570894;27;20047;-77
2022/10/07 12:59:49;;;;;;;17.08;9.45;;;;;;;;;;10575251;28;20635;-76
2022/10/07 13:05:06;;;;;;;14.52;9.07;;;;;;;;;;10575145;28;20137;-75
2022/10/07 13:10:18;;;;;;;16.85;10.00;;;;;;;;;;10573813;27;20055;-77
2022/10/07 13:15:29;;;;;;;17.35;10.13;;;;;;;;;;10551867;28;20090;-77
2022/10/07 13:20:42;;;;;;;20.67;11.93;;;;;;;;;;10574580;28;20335;-75
2022/10/07 13:25:46;;;;;;;20.90;11.80;;;;;;;;;;10576653;28;20055;-76
2022/10/07 13:30:51;;;;;;;21.67;11.90;;;;;;;;;;10568234;28;20047;-76
2022/10/07 13:36:06;;;;;;;26.83;11.32;;;;;;;;;;10571809;28;20031;-76
2022/10/07 13:41:13;;;;;;;18.42;10.85;;;;;;;;;;10574194;28;20130;-77
2022/10/07 13:46:19;;;;;;;19.77;10.45;;;;;;;;;;10556417;28;20059;-75
2022/10/07 13:51:31;;;;;;;18.88;10.63;;;;;;;;;;10564048;28;20046;-75
2022/10/07 13:56:37;;;;;;;14.52;8.63;;;;;;;;;;10560656;28;20067;-76
2022/10/07 14:01:49;;;;;;;20.33;7.80;;;;;;;;;;10535360;28;20040;-75
2022/10/07 14:06:54;;;;;;;16.13;8.65;;;;;;;;;;10569163;27;20089;-76
2022/10/07 14:12:02;;;;;;;16.05;8.57;;;;;;;;;;10562047;28;20174;-76
2022/10/07 14:17:17;;;;;;;14.35;7.35;;;;;;;;;;10555437;28;20043;-76
2022/10/07 14:22:21;;;;;;;14.27;7.82;;;;;;;;;;10556671;28;20043;-77
2022/10/07 14:27:50;;;;;;;18.35;9.27;;;;;;;;;;10575487;28;20043;-76
2022/10/07 14:38:30;;;;;;;14.32;7.88;;;;;;;;;;10560261;28;20035;-77
2022/10/07 14:43:33;;;;;;;12.57;7.20;;;;;;;;;;10562838;28;20508;-75
2022/10/07 14:48:38;;;;;;;14.38;7.50;;;;;;;;;;10544682;28;20040;-75
2022/10/07 14:53:42;;;;;;;15.35;7.43;;;;;;;;;;10565218;27;20047;-76
2022/10/07 14:58:45;;;;;;;12.95;7.22;;;;;;;;;;10566998;28;20504;-74
2022/10/07 15:03:48;;;;;;;;;;;;;;;;;;10565661;28;20031;-74
2022/10/07 15:08:53;;;;;;;15.98;8.10;;;;;;;;;;10561068;28;19924;-76
2022/10/07 15:13:55;;;;;;;14.75;8.20;;;;;;;;;;10562693;28;20086;-76
2022/10/07 15:18:58;;;;;;;15.63;8.52;;;;;;;;;;10565466;28;20122;-75
2022/10/07 15:24:03;;;;;;;16.30;9.30;;;;;;;;;;10561755;28;20066;-75
2022/10/07 15:29:07;;;;;;;16.65;9.43;;;;;;;;;;10565927;28;20514;-75
2022/10/07 15:34:10;;;;;;;17.92;8.85;;;;;;;;;;10560560;28;20040;-75
2022/10/07 15:39:18;;;;;;;20.63;9.43;;;;;;;;;;10559081;28;20039;-74
2022/10/07 15:44:21;;;;;;;21.38;9.80;;;;;;;;;;10559153;28;20089;-75
2022/10/07 15:49:25;;;;;;;19.55;9.75;;;;;;;;;;10552173;28;20044;-75
2022/10/07 15:54:27;;;;;;;;;;;;;;;;;;10559918;27;20472;-75
2022/10/07 15:59:32;;;;;;;23.38;11.18;;;;;;;;;;10568601;28;20018;-75
2022/10/07 16:04:35;;;;;;;20.23;9.93;;;;;;;;;;10568236;28;20492;-76
2022/10/07 16:09:39;;;;;;;23.10;10.45;;;;;;;;;;10568737;28;20083;-76
2022/10/07 16:14:42;;;;;;;;;;;;;;;;;;10562863;28;20093;-75
2022/10/07 16:19:46;;;;;;;22.15;10.07;;;;;;;;;;10560355;28;19931;-75
2022/10/07 16:24:50;;;;;;;20.55;9.65;;;;;;;;;;10559540;28;20501;-74
2022/10/07 16:35:16;;;;;;;25.48;11.70;;;;;;;;;;10552351;28;20028;-76
2022/10/07 16:40:19;;;;;;;26.13;11.35;;;;;;;;;;10560277;28;20039;-76
2022/10/07 16:45:22;;;;;;;25.30;10.67;;;;;;;;;;10556952;28;20032;-75
2022/10/07 16:50:27;;;;;;;28.98;12.05;;;;;;;;;;10562506;28;20455;-75
2022/10/07 16:55:30;;;;;;;23.52;11.13;;;;;;;;;;10558035;28;20123;-75
2022/10/07 17:00:34;;;;;;;29.23;12.30;;;;;;;;;;10556523;28;20043;-75
2022/10/07 17:05:38;;;;;;;25.70;11.82;;;;;;;;;;10545866;28;20074;-75
2022/10/07 17:10:41;;;;;;;32.10;10.88;;;;;;;;;;10545563;28;20135;-75
2022/10/07 17:15:44;;;;;;;25.23;11.65;;;;;;;;;;10561575;28;20044;-75
2022/10/07 17:20:56;;;;;;;21.73;10.35;;;;;;;;;;10553533;28;20158;-75
2022/10/07 17:26:03;;;;;;;28.08;11.57;;;;;;;;;;10544941;28;20067;-75
2022/10/07 17:31:07;;;;;;;36.70;15.57;;;;;;;;;;10559725;28;20054;-77
2022/10/07 17:36:12;;;;;;;32.03;11.80;;;;;;;;;;10541603;28;20043;-77
2022/10/07 17:41:18;;;;;;;25.98;11.65;;;;;;;;;;10561517;28;20147;-75
2022/10/07 17:46:24;;;;;;;25.90;11.95;;;;;;;;;;10560133;28;20040;-74
2022/10/07 17:51:30;;;;;;;30.25;13.05;;;;;;;;;;10560830;28;20552;-75
2022/10/07 17:56:33;;;;;;;29.10;12.20;;;;;;;;;;10569196;28;20036;-76
2022/10/07 18:01:36;;;;;;;30.80;12.85;;;;;;;;;;10559052;28;20063;-75
2022/10/07 18:06:42;;;;;;;26.48;11.50;;;;;;;;;;10569463;28;20051;-76
2022/10/07 18:17:08;;;;;;;38.72;16.45;;;;;;;;;;10569263;28;20036;-75
2022/10/07 18:22:11;;;;;;;;;;;;;;;;;;10558327;28;20107;-74
2022/10/07 18:27:15;;;;;;;29.58;13.60;;;;;;;;;;10564112;28;19920;-77
2022/10/07 18:32:19;;;;;;;32.80;15.43;;;;;;;;;;10555943;28;20051;-75
2022/10/07 18:37:22;;;;;;;38.37;15.63;;;;;;;;;;10558649;28;20032;-72
2022/10/07 18:42:26;;;;;;;31.20;13.32;;;;;;;;;;10568109;27;20035;-74
2022/10/07 18:47:30;;;;;;;35.15;15.70;;;;;;;;;;10570514;27;20036;-73
2022/10/07 18:52:33;;;;;;;41.45;16.08;;;;;;;;;;10565233;28;20131;-75
2022/10/07 18:57:37;;;;;;;39.67;16.90;;;;;;;;;;10550046;28;20036;-74
2022/10/07 19:02:43;;;;;;;36.40;16.73;;;;;;;;;;10564320;28;20047;-75
2022/10/07 19:07:46;;;;;;;39.45;15.63;;;;;;;;;;10568243;28;20078;-75
2022/10/07 19:18:12;;;;;;;33.47;13.77;;;;;;;;;;10562233;27;20436;-75
2022/10/07 19:23:15;;;;;;;32.78;13.63;;;;;;;;;;10561726;28;20450;-75
2022/10/07 19:28:20;;;;;;;;;;;;;;;;;;10570087;28;20051;-75
2022/10/07 19:33:24;;;;;;;12.93;4.80;;;;;;;;;;10559719;28;20374;-75
2022/10/07 19:38:28;;;;;;;29.10;12.38;;;;;;;;;;10544743;28;20036;-75
2022/10/07 19:43:33;;;;;;;31.00;14.45;;;;;;;;;;10565016;28;20152;-75
2022/10/07 19:48:39;;;;;;;23.95;12.10;;;;;;;;;;10562529;28;20058;-74
2022/10/07 19:53:43;;;;;;;25.52;10.75;;;;;;;;;;10559489;28;20138;-73
2022/10/07 19:58:50;;;;;;;22.35;11.57;;;;;;;;;;10563090;28;20044;-79
2022/10/07 20:03:57;;;;;;;26.90;12.52;;;;;;;;;;10555867;28;20114;-77
2022/10/07 20:09:00;;;;;;;25.00;12.43;;;;;;;;;;10561153;27;20590;-76
2022/10/07 20:14:04;;;;;;;29.10;13.70;;;;;;;;;;10536802;28;20401;-74
2022/10/07 20:19:14;;;;;;;31.63;13.88;;;;;;;;;;10563457;28;20052;-74
2022/10/07 20:24:17;;;;;;;30.42;13.50;;;;;;;;;;10555827;28;20024;-74
2022/10/07 20:29:20;;;;;;;32.47;15.73;;;;;;;;;;10562335;28;20122;-75
2022/10/07 20:34:28;;;;;;;32.10;14.57;;;;;;;;;;10552720;28;20514;-75
2022/10/07 20:44:51;;;;;;;27.08;12.10;;;;;;;;;;10561779;28;20303;-76
2022/10/07 20:49:58;;;;;;;29.58;11.95;;;;;;;;;;10557877;28;20035;-74
2022/10/07 20:55:01;;;;;;;35.20;14.20;;;;;;;;;;10567778;28;20131;-75
2022/10/07 21:00:14;;;;;;;31.52;12.20;;;;;;;;;;10564004;28;20516;-74
2022/10/07 21:05:24;;;;;;;30.08;12.38;;;;;;;;;;10550155;28;20515;-74
2022/10/07 21:10:27;;;;;;;;;;;;;;;;;;10557079;28;20485;-73
2022/10/07 21:15:30;;;;;;;19.88;7.28;;;;;;;;;;10563941;28;19931;-74
2022/10/07 21:20:35;;;;;;;28.77;13.63;;;;;;;;;;10563131;27;20114;-75
2022/10/07 21:25:38;;;;;;;33.92;14.10;;;;;;;;;;10566153;28;20071;-75
2022/10/07 21:30:42;;;;;;;27.00;10.93;;;;;;;;;;10571299;28;20039;-75
2022/10/07 21:35:46;;;;;;;28.83;13.20;;;;;;;;;;10565104;28;20068;-75
2022/10/07 21:40:49;;;;;;;;;;;;;;;;;;10566010;27;20405;-74
2022/10/07 21:45:51;;;;;;;28.27;13.65;;;;;;;;;;10562205;28;19924;-75
2022/10/07 21:50:56;;;;;;;10.93;5.63;;;;;;;;;;10564255;28;20640;-76
2022/10/07 21:56:01;;;;;;;39.88;14.60;;;;;;;;;;10562522;28;20503;-74
2022/10/07 22:01:05;;;;;;;25.35;10.25;;;;;;;;;;10567800;28;20043;-75
2022/10/07 22:06:10;;;;;;;24.33;12.13;;;;;;;;;;10572155;28;20040;-76
2022/10/07 22:11:13;;;;;;;18.65;8.63;;;;;;;;;;10563843;27;20044;-74
2022/10/07 22:16:17;;;;;;;28.77;13.27;;;;;;;;;;10565504;28;20035;-76
2022/10/07 22:21:27;;;;;;;24.58;10.45;;;;;;;;;;10558008;27;20457;-76
2022/10/07 22:26:31;;;;;;;22.00;9.63;;;;;;;;;;10566059;28;20488;-76
2022/10/07 22:31:40;;;;;;;26.73;10.95;;;;;;;;;;10554614;28;20043;-78
2022/10/07 22:36:44;;;;;;;23.48;10.32;;;;;;;;;;10562652;28;20457;-77
2022/10/07 22:41:48;;;;;;;24.42;12.13;;;;;;;;;;10547664;28;20082;-74
2022/10/07 22:46:58;;;;;;;25.65;11.93;;;;;;;;;;10567856;28;20032;-76
2022/10/07 22:52:02;;;;;;;35.70;13.85;;;;;;;;;;10567506;28;20244;-75
2022/10/07 22:57:06;;;;;;;;;;;;;;;;;;10565771;28;20059;-76
2022/10/07 23:02:09;;;;;;;25.30;11.53;;;;;;;;;;10571127;27;19928;-75
2022/10/07 23:07:16;;;;;;;27.73;11.50;;;;;;;;;;10564300;28;20800;-74
2022/10/07 23:12:19;;;;;;;24.77;11.63;;;;;;;;;;10555362;28;20042;-74
2022/10/07 23:17:22;;;;;;;27.13;11.77;;;;;;;;;;10562712;28;20123;-74
2022/10/07 23:22:26;;;;;;;28.15;12.13;;;;;;;;;;10547763;28;20047;-74
2022/10/07 23:27:29;;;;;;;25.45;12.00;;;;;;;;;;10565119;27;20039;-74
2022/10/07 23:32:32;;;;;;;28.48;12.52;;;;;;;;;;10553516;28;20074;-75
2022/10/07 23:37:37;;;;;;;27.00;11.25;;;;;;;;;;10558035;28;20488;-74
2022/10/07 23:42:39;;;;;;;24.95;11.20;;;;;;;;;;10561392;28;20444;-74
2022/10/07 23:47:42;;;;;;;23.23;10.27;;;;;;;;;;10560349;28;20457;-75
2022/10/07 23:52:46;;;;;;;32.42;11.80;;;;;;;;;;10564231;28;20405;-75
2022/10/07 23:57:49;;;;;;;21.17;9.48;;;;;;;;;;10561453;28;20031;-75
